Terminal Aerodrome Forecast
Issued by NWS Boise, ID

Home | Current Version | Previous Version | Text Only | Print | Product List | Glossary On
Versions: 1 2 3 4 5 6 7 8 9 10 11 12 13 14 15 16 17
000
FTUS45 KBOI 241738
TAFBNO
TAF
KBNO 241738Z 2418/2518 19005KT P6SM -RA SCT025 OVC035
     FM242000 22015G25KT P6SM -SHRA VCTS SCT040CB BKN080
     FM250000 24010KT P6SM SCT060 BKN080
     FM250800 25007KT P6SM -RA OVC040
     FM251600 28013KT P6SM BKN060 OVC100=

USA.gov is the U.S. government's official web portal to all federal, state and local government web resources and services.